createdAt,value
2023-04-07T00:00:48.992Z,81.00
2023-04-07T00:03:17.931Z,83.08
2023-04-07T00:05:44.336Z,80.89
2023-04-07T00:08:10.626Z,82.04
2023-04-07T00:10:43.090Z,82.56
2023-04-07T00:13:09.398Z,83.42
2023-04-07T00:15:35.911Z,80.58
2023-04-07T00:18:02.326Z,81.65
2023-04-07T00:20:28.662Z,83.67
2023-04-07T00:22:55.096Z,83.90
2023-04-07T00:25:21.402Z,84.05
2023-04-07T00:27:51.092Z,84.57
2023-04-07T00:30:17.994Z,83.02
2023-04-07T00:32:45.538Z,82.96
2023-04-07T00:35:11.956Z,82.78
2023-04-07T00:37:38.370Z,82.62
2023-04-07T00:40:04.818Z,83.29
2023-04-07T00:42:31.246Z,82.80
2023-04-07T00:44:57.600Z,81.08
2023-04-07T00:47:26.603Z,81.21
2023-04-07T00:49:56.060Z,81.35
2023-04-07T00:52:31.970Z,80.44
2023-04-07T00:55:01.253Z,81.75
2023-04-07T00:57:30.709Z,82.36
2023-04-07T00:59:57.251Z,82.05
2023-04-07T01:02:24.394Z,81.51
2023-04-07T01:04:51.491Z,82.41
2023-04-07T01:07:18.387Z,82.51
2023-04-07T01:09:52.402Z,80.68
2023-04-07T01:12:18.803Z,80.50
2023-04-07T01:14:45.123Z,80.35
2023-04-07T01:17:41.237Z,81.42
2023-04-07T01:20:10.716Z,82.82
2023-04-07T01:22:46.019Z,84.14
2023-04-07T01:25:12.452Z,84.91
2023-04-07T01:27:38.747Z,84.00
2023-04-07T01:30:05.579Z,84.98
2023-04-07T01:32:31.904Z,87.32
2023-04-07T01:34:59.439Z,87.20
2023-04-07T01:37:25.782Z,86.67
2023-04-07T01:39:52.313Z,88.14
2023-04-07T01:42:18.717Z,86.89
2023-04-07T01:44:45.039Z,87.98
2023-04-07T01:47:11.363Z,89.95
2023-04-07T01:49:38.100Z,87.75
2023-04-07T01:52:04.443Z,89.41
2023-04-07T01:54:31.434Z,88.99
2023-04-07T01:56:57.816Z,89.24
2023-04-07T01:59:25.322Z,88.45
2023-04-07T02:01:52.857Z,89.10
2023-04-07T02:04:19.477Z,89.54
2023-04-07T02:06:46.783Z,88.98
2023-04-07T02:09:13.728Z,87.81
2023-04-07T02:11:40.387Z,87.41
2023-04-07T02:14:07.358Z,87.24
2023-04-07T02:16:47.563Z,88.62
2023-04-07T02:19:15.344Z,87.63
2023-04-07T02:21:41.702Z,87.39
2023-04-07T02:24:08.250Z,87.38
2023-04-07T02:26:35.383Z,87.34
2023-04-07T02:29:01.832Z,88.20
2023-04-07T02:31:28.187Z,87.87
2023-04-07T02:33:54.603Z,87.34
2023-04-07T02:36:21.447Z,88.64
2023-04-07T02:38:47.779Z,87.21
2023-04-07T02:41:14.063Z,86.48
2023-04-07T02:43:40.420Z,87.77
2023-04-07T02:46:06.731Z,87.22
2023-04-07T02:48:33.073Z,87.57
2023-04-07T02:50:59.371Z,85.33
2023-04-07T02:53:25.723Z,86.53
2023-04-07T02:55:52.113Z,87.23
2023-04-07T02:58:18.483Z,87.27
2023-04-07T03:00:44.950Z,87.86
2023-04-07T03:03:16.162Z,86.56
2023-04-07T03:05:52.242Z,87.40
2023-04-07T03:08:18.712Z,87.14
2023-04-07T03:10:45.384Z,87.46
2023-04-07T03:13:16.307Z,87.24
2023-04-07T03:15:43.640Z,85.86
2023-04-07T03:18:11.497Z,85.00
2023-04-07T03:20:42.747Z,85.55
2023-04-07T03:23:11.419Z,85.75
2023-04-07T03:25:37.836Z,86.72
2023-04-07T03:28:05.242Z,85.90
2023-04-07T03:30:34.524Z,86.99
2023-04-07T03:33:01.490Z,86.18
2023-04-07T03:35:28.825Z,86.16
2023-04-07T03:37:55.212Z,87.52
2023-04-07T03:40:21.903Z,88.42
2023-04-07T03:42:48.250Z,86.65
2023-04-07T03:45:17.441Z,86.93
2023-04-07T03:47:47.952Z,86.77
2023-04-07T03:50:15.764Z,85.56
2023-04-07T03:52:52.158Z,86.87
2023-04-07T03:55:23.880Z,86.89
2023-04-07T04:00:21.068Z,86.04
2023-04-07T04:03:02.365Z,88.76
2023-04-07T04:05:28.874Z,87.26
2023-04-07T04:07:55.457Z,87.26
2023-04-07T04:10:22.897Z,86.30
2023-04-07T04:12:52.175Z,86.71
2023-04-07T04:15:18.475Z,86.52
2023-04-07T04:17:44.962Z,89.28
2023-04-07T04:20:12.210Z,88.61
2023-04-07T04:22:43.531Z,87.33
2023-04-07T04:25:11.152Z,87.53
2023-04-07T04:27:39.922Z,87.39
2023-04-07T04:30:15.156Z,87.03
2023-04-07T04:32:49.701Z,88.63
2023-04-07T04:35:19.440Z,87.47
2023-04-07T04:37:58.062Z,89.08
2023-04-07T04:40:24.452Z,89.40
2023-04-07T04:42:51.305Z,89.69
2023-04-07T04:45:20.291Z,86.82
2023-04-07T04:47:48.347Z,88.94
2023-04-07T04:50:16.069Z,88.55
2023-04-07T04:52:45.072Z,88.58
2023-04-07T04:55:19.000Z,87.79
2023-04-07T04:57:46.292Z,87.90
2023-04-07T05:00:17.758Z,87.33
2023-04-07T05:02:47.051Z,86.55
2023-04-07T05:05:14.720Z,88.65
2023-04-07T05:07:42.379Z,86.42
2023-04-07T05:10:11.945Z,88.55
2023-04-07T05:12:45.459Z,87.77
2023-04-07T05:15:11.830Z,85.55
2023-04-07T05:17:38.447Z,87.27
2023-04-07T05:20:05.064Z,87.59
2023-04-07T05:22:37.254Z,87.06
2023-04-07T05:25:06.202Z,86.56
2023-04-07T05:27:32.974Z,86.68
2023-04-07T05:30:03.293Z,85.63
2023-04-07T05:32:33.758Z,85.46
2023-04-07T05:35:06.137Z,84.38
2023-04-07T05:37:35.867Z,86.04
2023-04-07T05:40:04.352Z,85.97
2023-04-07T05:42:30.887Z,85.35
2023-04-07T05:44:59.067Z,85.70
2023-04-07T05:47:26.961Z,84.91
2023-04-07T05:49:53.987Z,84.00
2023-04-07T05:52:20.525Z,84.39
2023-04-07T05:54:53.246Z,83.14
2023-04-07T05:57:20.733Z,84.93
2023-04-07T05:59:48.629Z,85.29
2023-04-07T06:02:15.106Z,85.29
2023-04-07T06:04:45.305Z,84.23
2023-04-07T06:07:15.924Z,83.94
2023-04-07T06:09:43.230Z,83.84
2023-04-07T06:12:10.869Z,84.78
2023-04-07T06:14:37.222Z,84.26
2023-04-07T06:17:03.712Z,86.57
2023-04-07T06:19:30.103Z,85.41
2023-04-07T06:21:56.423Z,83.61
2023-04-07T06:24:27.663Z,82.99
2023-04-07T06:26:56.838Z,82.50
2023-04-07T06:29:23.228Z,82.71
2023-04-07T06:31:51.179Z,81.85
2023-04-07T06:34:18.779Z,81.86
2023-04-07T06:36:46.449Z,82.10
2023-04-07T06:39:13.133Z,81.05
2023-04-07T06:41:39.456Z,81.30
2023-04-07T06:44:08.794Z,81.75
2023-04-07T06:46:36.555Z,81.28
2023-04-07T06:49:03.729Z,81.32
2023-04-07T06:51:30.036Z,79.63
2023-04-07T06:53:56.404Z,80.95
2023-04-07T06:56:22.742Z,80.26
2023-04-07T06:58:49.039Z,81.34
2023-04-07T07:01:15.853Z,80.45
2023-04-07T07:03:42.293Z,79.47
2023-04-07T07:06:08.646Z,81.30
2023-04-07T07:08:35.269Z,82.34
2023-04-07T07:11:01.691Z,83.18
2023-04-07T07:13:28.039Z,82.85
2023-04-07T07:15:54.417Z,81.90
2023-04-07T07:18:20.866Z,83.33
2023-04-07T07:20:47.171Z,83.00
2023-04-07T07:23:13.544Z,83.26
2023-04-07T07:25:39.855Z,84.34
2023-04-07T07:28:06.227Z,84.02
2023-04-07T07:30:32.586Z,84.24
2023-04-07T07:32:58.986Z,83.56
2023-04-07T07:35:25.443Z,83.48
2023-04-07T07:37:51.992Z,83.22
2023-04-07T07:40:18.514Z,82.67
2023-04-07T07:42:44.849Z,83.62
2023-04-07T07:45:12.589Z,83.98
2023-04-07T07:47:39.177Z,84.40
2023-04-07T07:50:05.672Z,84.74
2023-04-07T07:52:31.990Z,83.25
2023-04-07T07:54:58.284Z,82.84
2023-04-07T07:57:24.568Z,83.00
2023-04-07T07:59:51.191Z,83.08
2023-04-07T08:02:17.515Z,84.21
2023-04-07T08:04:43.916Z,83.60
2023-04-07T08:07:11.916Z,82.48
2023-04-07T08:09:38.257Z,84.21
2023-04-07T08:12:04.576Z,83.74
2023-04-07T08:14:30.995Z,84.46
2023-04-07T08:16:57.296Z,83.19
2023-04-07T08:19:23.952Z,83.14
2023-04-07T08:21:50.356Z,83.30
2023-04-07T08:24:16.627Z,81.76
2023-04-07T08:26:43.043Z,83.69
2023-04-07T08:29:09.351Z,83.17
2023-04-07T08:31:35.770Z,83.18
2023-04-07T08:34:02.093Z,81.62
2023-04-07T08:36:28.923Z,81.82
2023-04-07T08:38:55.456Z,82.52
2023-04-07T08:41:21.787Z,81.82
2023-04-07T08:43:49.491Z,82.51
2023-04-07T08:46:16.097Z,82.07
2023-04-07T08:48:42.771Z,81.84
2023-04-07T08:51:10.382Z,81.51
2023-04-07T08:53:36.780Z,81.79
2023-04-07T08:56:03.160Z,82.03
2023-04-07T08:58:29.527Z,83.00
2023-04-07T09:00:55.940Z,81.21
2023-04-07T09:03:22.335Z,79.80
2023-04-07T09:05:48.717Z,80.28
2023-04-07T09:08:15.208Z,83.08
2023-04-07T09:10:41.675Z,79.80
2023-04-07T09:13:08.072Z,79.92
2023-04-07T09:15:35.075Z,79.90
2023-04-07T09:18:02.731Z,79.14
2023-04-07T09:20:29.058Z,79.35
2023-04-07T09:22:56.411Z,79.41
2023-04-07T09:25:23.797Z,79.75
2023-04-07T09:27:50.090Z,80.23
2023-04-07T09:30:16.705Z,78.76
2023-04-07T09:32:43.149Z,78.97
2023-04-07T09:35:09.470Z,79.15
2023-04-07T09:37:35.837Z,79.32
2023-04-07T09:40:02.268Z,78.77
2023-04-07T09:42:32.230Z,78.39
2023-04-07T09:44:58.534Z,80.08
2023-04-07T09:47:24.869Z,81.05
2023-04-07T09:49:52.569Z,80.12
2023-04-07T09:52:20.464Z,80.04
2023-04-07T09:54:46.927Z,79.01
2023-04-07T09:57:13.829Z,80.49
2023-04-07T09:59:40.868Z,78.97
2023-04-07T10:02:07.398Z,79.04
2023-04-07T10:04:34.006Z,79.01
2023-04-07T10:07:00.807Z,79.39
2023-04-07T10:09:27.112Z,78.78
2023-04-07T10:11:53.448Z,78.95
2023-04-07T10:14:19.804Z,79.25
2023-04-07T10:16:46.319Z,78.93
2023-04-07T10:19:12.868Z,78.80
2023-04-07T10:21:39.273Z,77.78
2023-04-07T10:24:05.614Z,78.34
2023-04-07T10:26:31.985Z,77.28
2023-04-07T10:28:58.295Z,78.98
2023-04-07T10:31:24.640Z,78.06
2023-04-07T10:33:51.638Z,78.20
2023-04-07T10:36:18.396Z,77.37
2023-04-07T10:38:44.701Z,77.29
2023-04-07T10:41:11.690Z,76.50
2023-04-07T10:43:38.758Z,76.36
2023-04-07T10:46:05.083Z,76.27
2023-04-07T10:48:33.380Z,78.04
2023-04-07T10:50:59.763Z,77.17
2023-04-07T10:53:26.100Z,76.28
2023-04-07T10:55:52.794Z,77.44
2023-04-07T10:58:19.267Z,75.81
2023-04-07T11:00:45.588Z,76.81
2023-04-07T11:03:13.448Z,75.68
2023-04-07T11:05:39.953Z,75.45
2023-04-07T11:08:07.668Z,75.76
2023-04-07T11:10:34.011Z,79.28
2023-04-07T11:13:00.322Z,76.12
2023-04-07T11:15:27.003Z,74.87
2023-04-07T11:17:53.305Z,74.66
2023-04-07T11:20:19.708Z,74.00
2023-04-07T11:22:45.999Z,73.61
2023-04-07T11:25:12.456Z,74.28
2023-04-07T11:27:38.769Z,73.31
2023-04-07T11:30:05.397Z,73.78
2023-04-07T11:32:31.707Z,72.74
2023-04-07T11:34:58.031Z,73.83
2023-04-07T11:37:24.799Z,72.29
2023-04-07T11:39:51.217Z,72.45
2023-04-07T11:42:17.562Z,71.70
2023-04-07T11:44:43.900Z,72.59
2023-04-07T11:47:10.596Z,70.56
2023-04-07T11:49:36.993Z,72.30
2023-04-07T11:52:03.374Z,71.96
2023-04-07T11:54:29.808Z,72.67
2023-04-07T11:56:56.431Z,71.54
2023-04-07T11:59:23.045Z,71.59
2023-04-07T12:01:49.719Z,72.83
2023-04-07T12:04:16.427Z,73.34
2023-04-07T12:06:42.911Z,71.99
2023-04-07T12:09:09.239Z,73.26
2023-04-07T12:11:36.448Z,70.86
2023-04-07T12:14:05.136Z,71.76
2023-04-07T12:16:32.110Z,70.91
2023-04-07T12:18:58.548Z,72.29
2023-04-07T12:21:26.628Z,71.48
2023-04-07T12:23:52.954Z,72.89
2023-04-07T12:26:20.633Z,74.54
2023-04-07T12:28:48.958Z,72.99
2023-04-07T12:31:15.851Z,73.92
2023-04-07T12:33:42.120Z,73.47
2023-04-07T12:36:08.499Z,73.46
2023-04-07T12:38:34.829Z,72.25
2023-04-07T12:41:03.503Z,73.47
2023-04-07T12:43:29.931Z,73.96
2023-04-07T12:45:57.134Z,75.04
2023-04-07T12:48:23.871Z,74.18
2023-04-07T12:50:50.286Z,75.03
2023-04-07T12:53:16.570Z,74.08
2023-04-07T12:55:42.912Z,75.11
2023-04-07T12:58:09.485Z,74.78
2023-04-07T13:00:35.933Z,74.68
2023-04-07T13:03:03.461Z,73.97
2023-04-07T13:05:30.110Z,74.17
2023-04-07T13:07:56.469Z,74.71
2023-04-07T13:10:22.781Z,75.45
2023-04-07T13:12:49.076Z,74.56
2023-04-07T13:15:15.416Z,76.67
2023-04-07T13:17:42.257Z,74.76
2023-04-07T13:20:08.767Z,75.93
2023-04-07T13:22:36.033Z,76.59
2023-04-07T13:25:02.583Z,76.81
2023-04-07T13:27:28.963Z,76.37
2023-04-07T13:29:55.738Z,77.27
2023-04-07T13:32:22.154Z,74.42
2023-04-07T13:34:48.501Z,75.02
2023-04-07T13:37:14.777Z,73.39
2023-04-07T13:39:41.160Z,73.13
2023-04-07T13:42:10.195Z,75.21
2023-04-07T13:44:39.574Z,75.17
2023-04-07T13:47:06.445Z,74.27
2023-04-07T13:49:32.767Z,75.24
2023-04-07T13:51:59.094Z,74.51
2023-04-07T13:54:25.466Z,73.98
2023-04-07T13:56:51.803Z,74.56
2023-04-07T13:59:18.169Z,74.87
2023-04-07T14:01:44.571Z,73.96
2023-04-07T14:04:10.972Z,74.99
2023-04-07T14:06:37.941Z,75.05
2023-04-07T14:09:06.279Z,74.33
2023-04-07T14:11:32.849Z,74.80
2023-04-07T14:13:59.137Z,76.09
2023-04-07T14:16:25.592Z,75.74
2023-04-07T14:18:52.017Z,75.02
2023-04-07T14:21:18.383Z,75.57
2023-04-07T14:23:44.699Z,76.29
2023-04-07T14:26:11.662Z,75.77
2023-04-07T14:28:37.990Z,75.18
2023-04-07T14:31:04.314Z,75.97
2023-04-07T14:33:30.790Z,74.94
2023-04-07T14:35:57.572Z,75.92
2023-04-07T14:38:25.708Z,77.31
2023-04-07T14:40:52.553Z,76.77
2023-04-07T14:43:18.906Z,75.44
2023-04-07T14:45:45.536Z,74.75
2023-04-07T14:48:11.956Z,72.98
2023-04-07T14:50:38.740Z,73.45
2023-04-07T14:53:05.121Z,74.77
2023-04-07T14:55:31.536Z,73.84
2023-04-07T14:57:57.894Z,73.93
2023-04-07T15:00:26.082Z,75.13
2023-04-07T15:02:54.242Z,74.56
2023-04-07T15:05:22.887Z,72.45
2023-04-07T15:07:50.707Z,73.42
2023-04-07T15:10:19.986Z,72.62
2023-04-07T15:12:50.288Z,72.99
2023-04-07T15:15:16.753Z,73.92
2023-04-07T15:17:44.754Z,72.33
2023-04-07T15:20:12.768Z,74.11
2023-04-07T15:22:39.133Z,75.01
2023-04-07T15:25:05.821Z,74.11
2023-04-07T15:27:32.103Z,74.07
2023-04-07T15:29:58.793Z,74.07
2023-04-07T15:32:25.175Z,76.90
2023-04-07T15:34:51.458Z,76.72
2023-04-07T15:37:18.796Z,77.34
2023-04-07T15:39:45.151Z,77.37
2023-04-07T15:42:12.542Z,76.90
2023-04-07T15:44:39.690Z,76.44
2023-04-07T15:47:06.320Z,76.88
2023-04-07T15:49:32.750Z,77.14
2023-04-07T15:51:59.029Z,75.65
2023-04-07T15:54:25.365Z,76.62
2023-04-07T15:56:52.667Z,75.94
2023-04-07T15:59:18.950Z,76.36
2023-04-07T16:01:45.524Z,76.80
2023-04-07T16:04:12.106Z,76.25
2023-04-07T16:06:38.783Z,76.04
2023-04-07T16:09:05.306Z,77.15
2023-04-07T16:11:31.609Z,76.64
2023-04-07T16:13:57.934Z,77.45
2023-04-07T16:16:24.309Z,77.36
2023-04-07T16:18:51.843Z,77.13
2023-04-07T16:21:18.176Z,76.28
2023-04-07T16:23:44.425Z,76.08
2023-04-07T16:26:11.133Z,75.86
2023-04-07T16:28:39.168Z,77.13
2023-04-07T16:31:08.614Z,75.50
2023-04-07T16:33:35.682Z,77.29
2023-04-07T16:36:02.261Z,77.48
2023-04-07T16:38:29.096Z,76.58
2023-04-07T16:41:03.965Z,77.79
2023-04-07T16:43:31.223Z,78.15
2023-04-07T16:46:00.151Z,78.21
2023-04-07T16:48:26.750Z,77.38
2023-04-07T16:50:53.316Z,78.14
2023-04-07T16:53:21.314Z,77.94
2023-04-07T16:55:48.030Z,79.00
2023-04-07T16:58:18.746Z,79.03
2023-04-07T17:00:46.300Z,78.11
2023-04-07T17:03:12.749Z,78.33
2023-04-07T17:05:39.117Z,78.34
2023-04-07T17:08:05.454Z,79.26
2023-04-07T17:10:31.726Z,79.54
2023-04-07T17:12:58.084Z,79.37
2023-04-07T17:15:24.449Z,78.55
2023-04-07T17:17:50.950Z,79.00
2023-04-07T17:20:17.617Z,78.78
2023-04-07T17:22:43.981Z,79.82
2023-04-07T17:25:10.264Z,79.03
2023-04-07T17:27:36.572Z,79.32
2023-04-07T17:30:02.871Z,78.52
2023-04-07T17:32:29.248Z,79.19
2023-04-07T17:34:55.786Z,79.71
2023-04-07T17:37:22.080Z,78.80
2023-04-07T17:39:48.382Z,79.50
2023-04-07T17:42:14.722Z,79.24
2023-04-07T17:44:42.322Z,79.61
2023-04-07T17:47:09.583Z,80.40
2023-04-07T17:49:35.910Z,80.39
2023-04-07T17:52:02.712Z,80.42
2023-04-07T17:54:29.178Z,79.35
2023-04-07T17:56:55.552Z,78.93
2023-04-07T17:59:21.842Z,79.37
2023-04-07T18:01:48.213Z,79.43
2023-04-07T18:04:15.003Z,78.90
2023-04-07T18:06:41.382Z,79.71
2023-04-07T18:09:08.037Z,79.87
2023-04-07T18:11:34.318Z,79.46
2023-04-07T18:14:00.678Z,79.91
2023-04-07T18:16:27.227Z,81.21
2023-04-07T18:18:53.572Z,80.91
2023-04-07T18:21:19.979Z,79.48
2023-04-07T18:23:46.415Z,80.88
2023-04-07T18:26:12.873Z,80.66
2023-04-07T18:28:39.399Z,80.36
2023-04-07T18:31:08.949Z,81.13
2023-04-07T18:33:35.305Z,81.24
2023-04-07T18:36:01.818Z,79.75
2023-04-07T18:38:28.221Z,82.48
2023-04-07T18:40:54.601Z,81.74
2023-04-07T18:43:20.993Z,82.08
2023-04-07T18:45:47.575Z,82.66
2023-04-07T18:48:15.260Z,82.67
2023-04-07T18:50:42.128Z,82.36
2023-04-07T18:53:08.446Z,83.03
2023-04-07T18:55:34.805Z,81.75
2023-04-07T18:58:01.126Z,83.18
2023-04-07T19:00:27.418Z,84.30
2023-04-07T19:02:53.850Z,83.78
2023-04-07T19:05:23.070Z,84.92
2023-04-07T19:07:51.522Z,83.20
2023-04-07T19:10:17.814Z,83.72
2023-04-07T19:12:44.160Z,83.84
2023-04-07T19:15:10.607Z,84.03
2023-04-07T19:17:37.622Z,84.58
2023-04-07T19:20:04.021Z,84.92
2023-04-07T19:22:30.356Z,86.20
2023-04-07T19:24:56.688Z,86.64
2023-04-07T19:27:23.345Z,87.41
2023-04-07T19:29:49.643Z,85.85
2023-04-07T19:32:15.931Z,85.52
2023-04-07T19:34:42.340Z,86.57
2023-04-07T19:37:08.716Z,85.65
2023-04-07T19:39:35.017Z,84.82
2023-04-07T19:42:01.329Z,86.38
2023-04-07T19:44:27.722Z,84.96
2023-04-07T19:46:54.120Z,86.29
2023-04-07T19:49:20.742Z,85.11
2023-04-07T19:51:47.214Z,86.41
2023-04-07T19:54:13.662Z,87.15
2023-04-07T19:56:40.142Z,86.00
2023-04-07T19:59:06.465Z,85.69
2023-04-07T20:01:32.880Z,86.06
2023-04-07T20:03:59.402Z,85.89
2023-04-07T20:06:27.159Z,86.05
2023-04-07T20:08:54.272Z,84.13
2023-04-07T20:11:21.583Z,85.75
2023-04-07T20:13:47.910Z,85.46
2023-04-07T20:16:14.317Z,84.72
2023-04-07T20:18:40.639Z,84.12
2023-04-07T20:21:07.078Z,84.26
2023-04-07T20:23:33.532Z,85.26
2023-04-07T20:25:59.930Z,84.84
2023-04-07T20:28:26.334Z,84.71
2023-04-07T20:30:52.780Z,83.40
2023-04-07T20:33:19.750Z,84.70
2023-04-07T20:35:46.349Z,85.27
2023-04-07T20:38:12.760Z,84.35
2023-04-07T20:40:39.096Z,85.57
2023-04-07T20:43:08.082Z,85.08
2023-04-07T20:45:34.477Z,84.29
2023-04-07T20:48:01.385Z,85.83
2023-04-07T20:50:28.466Z,86.86
2023-04-07T20:52:54.797Z,86.41
2023-04-07T20:55:21.598Z,86.23
2023-04-07T20:57:48.448Z,86.67
2023-04-07T21:00:14.735Z,86.14
2023-04-07T21:02:41.785Z,86.03
2023-04-07T21:05:08.420Z,87.84
2023-04-07T21:07:34.723Z,85.34
2023-04-07T21:10:01.089Z,85.52
2023-04-07T21:12:27.389Z,85.57
2023-04-07T21:14:53.822Z,85.29
2023-04-07T21:17:20.628Z,84.57
2023-04-07T21:19:46.968Z,86.63
2023-04-07T21:22:13.303Z,86.38
2023-04-07T21:24:39.681Z,84.59
2023-04-07T21:27:06.232Z,85.44
2023-04-07T21:29:32.665Z,85.57
2023-04-07T21:31:59.773Z,85.02
2023-04-07T21:34:26.674Z,85.34
2023-04-07T21:36:53.198Z,85.90
2023-04-07T21:39:19.518Z,85.81
2023-04-07T21:41:45.960Z,85.29
2023-04-07T21:44:12.990Z,85.94
2023-04-07T21:46:39.390Z,85.84
2023-04-07T21:49:05.726Z,86.22
2023-04-07T21:51:33.632Z,84.80
2023-04-07T21:54:00.023Z,86.26
2023-04-07T21:56:28.958Z,86.69
2023-04-07T21:58:55.499Z,86.61
2023-04-07T22:01:21.839Z,87.64
2023-04-07T22:03:48.528Z,87.53
2023-04-07T22:06:15.494Z,88.24
2023-04-07T22:08:48.942Z,86.96
2023-04-07T22:11:27.060Z,86.69
2023-04-07T22:13:53.366Z,86.45
2023-04-07T22:16:19.667Z,85.62
2023-04-07T22:18:46.038Z,86.20
2023-04-07T22:21:12.403Z,86.96
2023-04-07T22:23:38.776Z,87.80
2023-04-07T22:26:05.612Z,89.15
2023-04-07T22:28:31.975Z,86.77
2023-04-07T22:30:59.701Z,87.10
2023-04-07T22:33:26.136Z,88.54
2023-04-07T22:35:52.506Z,87.07
2023-04-07T22:38:18.858Z,86.99
2023-04-07T22:40:45.383Z,87.89
2023-04-07T22:43:11.760Z,87.00
2023-04-07T22:45:38.339Z,86.37
2023-04-07T22:48:04.772Z,87.81
2023-04-07T22:50:31.347Z,89.20
2023-04-07T22:52:57.865Z,87.79
2023-04-07T22:55:24.332Z,88.60
2023-04-07T22:57:50.971Z,88.04
2023-04-07T23:00:17.735Z,88.69
2023-04-07T23:02:44.277Z,89.02
2023-04-07T23:05:10.756Z,88.49
2023-04-07T23:07:37.080Z,86.76
2023-04-07T23:10:03.412Z,88.78
2023-04-07T23:12:29.745Z,88.22
2023-04-07T23:14:56.281Z,88.95
2023-04-07T23:17:22.667Z,87.97
2023-04-07T23:19:51.120Z,88.33
2023-04-07T23:22:20.366Z,88.43
2023-04-07T23:24:47.051Z,86.53
2023-04-07T23:27:13.384Z,86.67
2023-04-07T23:29:39.715Z,88.28
2023-04-07T23:32:06.852Z,88.13
2023-04-07T23:34:33.762Z,87.34
2023-04-07T23:37:00.497Z,86.98
2023-04-07T23:39:26.881Z,86.41
2023-04-07T23:41:53.179Z,87.60
2023-04-07T23:44:19.531Z,87.39
2023-04-07T23:46:45.885Z,88.32
2023-04-07T23:49:12.298Z,86.93
2023-04-07T23:51:39.429Z,87.68
2023-04-07T23:54:05.779Z,87.32
2023-04-07T23:56:32.286Z,86.29
2023-04-07T23:58:58.600Z,87.47
